sensor_id;sensor_type;location;lat;lon;timestamp;temperature;humidity
11474;DHT22;5793;52.238;13.438;2023-11-21T00:05:28;8.60;99.90
11474;DHT22;5793;52.238;13.438;2023-11-21T00:07:56;8.60;99.90
11474;DHT22;5793;52.238;13.438;2023-11-21T00:10:23;8.60;99.90
11474;DHT22;5793;52.238;13.438;2023-11-21T00:12:51;8.80;99.90
11474;DHT22;5793;52.238;13.438;2023-11-21T00:15:23;8.70;99.90
11474;DHT22;5793;52.238;13.438;2023-11-21T00:17:51;8.80;99.90
11474;DHT22;5793;52.238;13.438;2023-11-21T00:20:19;8.70;99.90
11474;DHT22;5793;52.238;13.438;2023-11-21T00:22:47;8.80;99.90
11474;DHT22;5793;52.238;13.438;2023-11-21T00:25:15;8.60;99.90
11474;DHT22;5793;52.238;13.438;2023-11-21T00:27:44;8.60;99.90
11474;DHT22;5793;52.238;13.438;2023-11-21T00:30:13;8.60;99.90
11474;DHT22;5793;52.238;13.438;2023-11-21T00:32:42;8.60;99.90
11474;DHT22;5793;52.238;13.438;2023-11-21T00:35:10;8.60;99.90
11474;DHT22;5793;52.238;13.438;2023-11-21T00:37:38;8.60;99.90
11474;DHT22;5793;52.238;13.438;2023-11-21T00:40:07;8.70;99.90
11474;DHT22;5793;52.238;13.438;2023-11-21T00:42:36;8.80;99.90
11474;DHT22;5793;52.238;13.438;2023-11-21T00:45:04;8.80;99.90
11474;DHT22;5793;52.238;13.438;2023-11-21T00:47:32;8.70;99.90
11474;DHT22;5793;52.238;13.438;2023-11-21T00:50:02;8.70;99.90
11474;DHT22;5793;52.238;13.438;2023-11-21T00:52:32;8.70;99.90
11474;DHT22;5793;52.238;13.438;2023-11-21T00:55:00;8.70;99.90
11474;DHT22;5793;52.238;13.438;2023-11-21T00:57:29;8.80;99.90
11474;DHT22;5793;52.238;13.438;2023-11-21T00:59:57;8.80;99.90
11474;DHT22;5793;52.238;13.438;2023-11-21T01:02:25;8.80;99.90
11474;DHT22;5793;52.238;13.438;2023-11-21T01:04:52;8.80;99.90
11474;DHT22;5793;52.238;13.438;2023-11-21T01:07:22;8.80;99.90
11474;DHT22;5793;52.238;13.438;2023-11-21T01:09:50;8.70;99.90
11474;DHT22;5793;52.238;13.438;2023-11-21T01:12:18;8.80;99.90
11474;DHT22;5793;52.238;13.438;2023-11-21T01:14:46;8.70;99.90
11474;DHT22;5793;52.238;13.438;2023-11-21T01:17:14;8.70;99.90
11474;DHT22;5793;52.238;13.438;2023-11-21T01:19:42;8.70;99.90
11474;DHT22;5793;52.238;13.438;2023-11-21T01:22:09;8.80;99.90
11474;DHT22;5793;52.238;13.438;2023-11-21T01:24:39;8.90;99.90
11474;DHT22;5793;52.238;13.438;2023-11-21T01:27:07;8.90;99.90
11474;DHT22;5793;52.238;13.438;2023-11-21T01:29:35;9.00;99.90
11474;DHT22;5793;52.238;13.438;2023-11-21T01:32:03;8.80;99.90
11474;DHT22;5793;52.238;13.438;2023-11-21T01:34:31;8.80;99.90
11474;DHT22;5793;52.238;13.438;2023-11-21T01:36:59;8.90;99.90
11474;DHT22;5793;52.238;13.438;2023-11-21T01:39:28;8.90;99.90
11474;DHT22;5793;52.238;13.438;2023-11-21T01:41:57;9.00;99.90
11474;DHT22;5793;52.238;13.438;2023-11-21T01:44:25;9.00;99.90
11474;DHT22;5793;52.238;13.438;2023-11-21T01:46:53;8.90;99.90
11474;DHT22;5793;52.238;13.438;2023-11-21T01:49:21;8.80;99.90
11474;DHT22;5793;52.238;13.438;2023-11-21T01:51:49;8.40;99.90
11474;DHT22;5793;52.238;13.438;2023-11-21T01:54:19;8.20;99.90
11474;DHT22;5793;52.238;13.438;2023-11-21T01:56:48;8.10;99.90
11474;DHT22;5793;52.238;13.438;2023-11-21T01:59:19;8.00;99.90
11474;DHT22;5793;52.238;13.438;2023-11-21T02:01:48;7.90;99.90
11474;DHT22;5793;52.238;13.438;2023-11-21T02:04:18;7.90;99.90
11474;DHT22;5793;52.238;13.438;2023-11-21T02:06:51;7.80;99.90
11474;DHT22;5793;52.238;13.438;2023-11-21T02:09:24;7.70;99.90
11474;DHT22;5793;52.238;13.438;2023-11-21T02:11:52;7.80;99.90
11474;DHT22;5793;52.238;13.438;2023-11-21T02:14:25;7.80;99.90
11474;DHT22;5793;52.238;13.438;2023-11-21T02:16:55;7.70;99.90
11474;DHT22;5793;52.238;13.438;2023-11-21T02:19:24;7.70;99.90
11474;DHT22;5793;52.238;13.438;2023-11-21T02:21:53;7.70;99.90
11474;DHT22;5793;52.238;13.438;2023-11-21T02:24:22;7.60;99.90
11474;DHT22;5793;52.238;13.438;2023-11-21T02:26:51;7.40;99.90
11474;DHT22;5793;52.238;13.438;2023-11-21T02:29:19;7.30;99.90
11474;DHT22;5793;52.238;13.438;2023-11-21T02:31:51;7.40;99.90
11474;DHT22;5793;52.238;13.438;2023-11-21T02:34:22;7.30;99.90
11474;DHT22;5793;52.238;13.438;2023-11-21T02:36:50;7.30;99.90
11474;DHT22;5793;52.238;13.438;2023-11-21T02:39:18;7.30;99.90
11474;DHT22;5793;52.238;13.438;2023-11-21T02:41:49;7.20;99.90
11474;DHT22;5793;52.238;13.438;2023-11-21T02:44:17;7.20;99.90
11474;DHT22;5793;52.238;13.438;2023-11-21T02:46:45;7.10;99.90
11474;DHT22;5793;52.238;13.438;2023-11-21T02:49:14;7.10;99.90
11474;DHT22;5793;52.238;13.438;2023-11-21T02:51:41;7.10;99.90
11474;DHT22;5793;52.238;13.438;2023-11-21T02:54:11;7.00;99.90
11474;DHT22;5793;52.238;13.438;2023-11-21T02:56:39;7.00;99.90
11474;DHT22;5793;52.238;13.438;2023-11-21T02:59:08;6.90;99.90
11474;DHT22;5793;52.238;13.438;2023-11-21T03:01:36;6.80;99.90
11474;DHT22;5793;52.238;13.438;2023-11-21T03:04:05;6.80;99.90
11474;DHT22;5793;52.238;13.438;2023-11-21T03:06:33;6.70;99.90
11474;DHT22;5793;52.238;13.438;2023-11-21T03:09:01;6.70;99.90
11474;DHT22;5793;52.238;13.438;2023-11-21T03:11:29;6.80;99.90
11474;DHT22;5793;52.238;13.438;2023-11-21T03:13:57;6.70;99.90
11474;DHT22;5793;52.238;13.438;2023-11-21T03:16:26;6.80;99.90
11474;DHT22;5793;52.238;13.438;2023-11-21T03:18:54;6.70;99.90
11474;DHT22;5793;52.238;13.438;2023-11-21T03:21:22;6.70;99.90
11474;DHT22;5793;52.238;13.438;2023-11-21T03:23:49;6.80;99.90
11474;DHT22;5793;52.238;13.438;2023-11-21T03:26:17;6.70;99.90
11474;DHT22;5793;52.238;13.438;2023-11-21T03:28:45;6.70;99.90
11474;DHT22;5793;52.238;13.438;2023-11-21T03:31:13;6.60;99.90
11474;DHT22;5793;52.238;13.438;2023-11-21T03:33:44;6.50;99.90
11474;DHT22;5793;52.238;13.438;2023-11-21T03:36:12;6.40;99.90
11474;DHT22;5793;52.238;13.438;2023-11-21T03:38:41;6.40;99.90
11474;DHT22;5793;52.238;13.438;2023-11-21T03:41:09;6.30;99.90
11474;DHT22;5793;52.238;13.438;2023-11-21T03:43:37;6.30;99.90
11474;DHT22;5793;52.238;13.438;2023-11-21T03:46:06;6.30;99.90
11474;DHT22;5793;52.238;13.438;2023-11-21T03:48:33;6.20;99.90
11474;DHT22;5793;52.238;13.438;2023-11-21T03:51:03;6.10;99.90
11474;DHT22;5793;52.238;13.438;2023-11-21T03:53:31;6.10;99.90
11474;DHT22;5793;52.238;13.438;2023-11-21T03:56:02;6.10;99.90
11474;DHT22;5793;52.238;13.438;2023-11-21T03:58:30;6.00;99.90
11474;DHT22;5793;52.238;13.438;2023-11-21T04:00:57;6.00;99.90
11474;DHT22;5793;52.238;13.438;2023-11-21T04:03:25;6.10;99.90
11474;DHT22;5793;52.238;13.438;2023-11-21T04:05:53;6.10;99.90
11474;DHT22;5793;52.238;13.438;2023-11-21T04:08:22;6.10;99.90
11474;DHT22;5793;52.238;13.438;2023-11-21T04:10:52;6.10;99.90
11474;DHT22;5793;52.238;13.438;2023-11-21T04:13:20;6.10;99.90
11474;DHT22;5793;52.238;13.438;2023-11-21T04:15:48;6.10;99.90
11474;DHT22;5793;52.238;13.438;2023-11-21T04:18:16;6.10;99.90
11474;DHT22;5793;52.238;13.438;2023-11-21T04:20:44;6.00;99.90
11474;DHT22;5793;52.238;13.438;2023-11-21T04:23:11;5.90;99.90
11474;DHT22;5793;52.238;13.438;2023-11-21T04:25:41;5.90;99.90
11474;DHT22;5793;52.238;13.438;2023-11-21T04:28:09;6.00;99.90
11474;DHT22;5793;52.238;13.438;2023-11-21T04:30:37;6.10;99.90
11474;DHT22;5793;52.238;13.438;2023-11-21T04:33:06;6.10;99.90
11474;DHT22;5793;52.238;13.438;2023-11-21T04:35:34;6.10;99.90
11474;DHT22;5793;52.238;13.438;2023-11-21T04:38:02;6.00;99.90
11474;DHT22;5793;52.238;13.438;2023-11-21T04:40:29;6.10;99.90
11474;DHT22;5793;52.238;13.438;2023-11-21T04:42:59;6.10;99.90
11474;DHT22;5793;52.238;13.438;2023-11-21T04:45:26;6.20;99.90
11474;DHT22;5793;52.238;13.438;2023-11-21T04:47:54;6.20;99.90
11474;DHT22;5793;52.238;13.438;2023-11-21T04:50:22;6.20;99.90
11474;DHT22;5793;52.238;13.438;2023-11-21T04:52:52;6.20;99.90
11474;DHT22;5793;52.238;13.438;2023-11-21T04:55:20;6.00;99.90
11474;DHT22;5793;52.238;13.438;2023-11-21T04:57:48;6.00;99.90
11474;DHT22;5793;52.238;13.438;2023-11-21T05:00:18;6.00;99.90
11474;DHT22;5793;52.238;13.438;2023-11-21T05:02:46;6.00;99.90
11474;DHT22;5793;52.238;13.438;2023-11-21T05:05:14;6.10;99.90
11474;DHT22;5793;52.238;13.438;2023-11-21T05:07:42;5.90;99.90
11474;DHT22;5793;52.238;13.438;2023-11-21T05:10:10;5.90;99.90
11474;DHT22;5793;52.238;13.438;2023-11-21T05:12:40;6.00;99.90
11474;DHT22;5793;52.238;13.438;2023-11-21T05:15:09;5.90;99.90
11474;DHT22;5793;52.238;13.438;2023-11-21T05:17:39;5.80;99.90
11474;DHT22;5793;52.238;13.438;2023-11-21T05:20:10;5.70;99.90
11474;DHT22;5793;52.238;13.438;2023-11-21T05:22:39;5.70;99.90
11474;DHT22;5793;52.238;13.438;2023-11-21T05:25:09;5.60;99.90
11474;DHT22;5793;52.238;13.438;2023-11-21T05:27:38;5.60;99.90
11474;DHT22;5793;52.238;13.438;2023-11-21T05:30:07;5.60;99.90
11474;DHT22;5793;52.238;13.438;2023-11-21T05:32:36;5.50;99.90
11474;DHT22;5793;52.238;13.438;2023-11-21T05:35:06;5.50;99.90
11474;DHT22;5793;52.238;13.438;2023-11-21T05:37:36;5.60;99.90
11474;DHT22;5793;52.238;13.438;2023-11-21T05:40:06;5.60;99.90
11474;DHT22;5793;52.238;13.438;2023-11-21T05:42:35;5.60;99.90
11474;DHT22;5793;52.238;13.438;2023-11-21T05:45:05;5.70;99.90
11474;DHT22;5793;52.238;13.438;2023-11-21T05:47:37;5.70;99.90
11474;DHT22;5793;52.238;13.438;2023-11-21T05:50:08;5.60;99.90
11474;DHT22;5793;52.238;13.438;2023-11-21T05:52:43;5.60;99.90
11474;DHT22;5793;52.238;13.438;2023-11-21T05:55:11;5.50;99.90
11474;DHT22;5793;52.238;13.438;2023-11-21T05:57:42;5.50;99.90
11474;DHT22;5793;52.238;13.438;2023-11-21T06:00:12;5.60;99.90
11474;DHT22;5793;52.238;13.438;2023-11-21T06:02:42;5.50;99.90
11474;DHT22;5793;52.238;13.438;2023-11-21T06:05:11;5.60;99.90
11474;DHT22;5793;52.238;13.438;2023-11-21T06:07:39;5.60;99.90
11474;DHT22;5793;52.238;13.438;2023-11-21T06:10:10;5.50;99.90
11474;DHT22;5793;52.238;13.438;2023-11-21T06:12:41;5.50;99.90
11474;DHT22;5793;52.238;13.438;2023-11-21T06:15:11;5.50;99.90
11474;DHT22;5793;52.238;13.438;2023-11-21T06:17:41;5.50;99.90
11474;DHT22;5793;52.238;13.438;2023-11-21T06:20:11;5.50;99.90
11474;DHT22;5793;52.238;13.438;2023-11-21T06:22:42;5.60;99.90
11474;DHT22;5793;52.238;13.438;2023-11-21T06:25:11;5.50;99.90
11474;DHT22;5793;52.238;13.438;2023-11-21T06:27:41;5.50;99.90
11474;DHT22;5793;52.238;13.438;2023-11-21T06:30:09;5.60;99.90
11474;DHT22;5793;52.238;13.438;2023-11-21T06:32:39;5.60;99.90
11474;DHT22;5793;52.238;13.438;2023-11-21T06:35:08;5.60;99.90
11474;DHT22;5793;52.238;13.438;2023-11-21T06:37:38;5.70;99.90
11474;DHT22;5793;52.238;13.438;2023-11-21T06:40:07;5.60;99.90
11474;DHT22;5793;52.238;13.438;2023-11-21T06:42:36;5.50;99.90
11474;DHT22;5793;52.238;13.438;2023-11-21T06:45:06;5.50;99.90
11474;DHT22;5793;52.238;13.438;2023-11-21T06:47:34;5.50;99.90
11474;DHT22;5793;52.238;13.438;2023-11-21T06:50:02;5.60;99.90
11474;DHT22;5793;52.238;13.438;2023-11-21T06:52:30;5.60;99.90
11474;DHT22;5793;52.238;13.438;2023-11-21T06:54:59;5.50;99.90
11474;DHT22;5793;52.238;13.438;2023-11-21T06:57:27;5.30;99.90
11474;DHT22;5793;52.238;13.438;2023-11-21T06:59:55;5.30;99.90
11474;DHT22;5793;52.238;13.438;2023-11-21T07:02:24;5.30;99.90
11474;DHT22;5793;52.238;13.438;2023-11-21T07:04:52;5.40;99.90
11474;DHT22;5793;52.238;13.438;2023-11-21T07:07:19;5.40;99.90
11474;DHT22;5793;52.238;13.438;2023-11-21T07:09:47;5.40;99.90
11474;DHT22;5793;52.238;13.438;2023-11-21T07:12:17;5.40;99.90
11474;DHT22;5793;52.238;13.438;2023-11-21T07:14:44;5.50;99.90
11474;DHT22;5793;52.238;13.438;2023-11-21T07:17:12;5.60;99.90
11474;DHT22;5793;52.238;13.438;2023-11-21T07:19:40;5.60;99.90
11474;DHT22;5793;52.238;13.438;2023-11-21T07:22:08;5.60;99.90
11474;DHT22;5793;52.238;13.438;2023-11-21T07:24:37;5.70;99.90
11474;DHT22;5793;52.238;13.438;2023-11-21T07:27:05;5.60;99.90
11474;DHT22;5793;52.238;13.438;2023-11-21T07:29:34;5.60;99.90
11474;DHT22;5793;52.238;13.438;2023-11-21T07:32:02;5.70;99.90
11474;DHT22;5793;52.238;13.438;2023-11-21T07:34:30;5.70;99.90
11474;DHT22;5793;52.238;13.438;2023-11-21T07:36:58;5.70;99.90
11474;DHT22;5793;52.238;13.438;2023-11-21T07:39:25;5.60;99.90
11474;DHT22;5793;52.238;13.438;2023-11-21T07:41:53;5.50;99.90
11474;DHT22;5793;52.238;13.438;2023-11-21T07:44:21;5.50;99.90
11474;DHT22;5793;52.238;13.438;2023-11-21T07:46:50;5.70;99.90
11474;DHT22;5793;52.238;13.438;2023-11-21T07:49:18;5.70;99.90
11474;DHT22;5793;52.238;13.438;2023-11-21T07:51:47;5.70;99.90
11474;DHT22;5793;52.238;13.438;2023-11-21T07:54:16;5.60;99.90
11474;DHT22;5793;52.238;13.438;2023-11-21T07:56:43;5.50;99.90
11474;DHT22;5793;52.238;13.438;2023-11-21T07:59:11;5.50;99.90
11474;DHT22;5793;52.238;13.438;2023-11-21T08:01:40;5.50;99.90
11474;DHT22;5793;52.238;13.438;2023-11-21T08:04:11;5.60;99.90
11474;DHT22;5793;52.238;13.438;2023-11-21T08:06:39;5.70;99.90
11474;DHT22;5793;52.238;13.438;2023-11-21T08:09:08;5.60;99.90
11474;DHT22;5793;52.238;13.438;2023-11-21T08:11:38;5.50;99.90
11474;DHT22;5793;52.238;13.438;2023-11-21T08:14:06;5.50;99.90
11474;DHT22;5793;52.238;13.438;2023-11-21T08:16:34;5.60;99.90
11474;DHT22;5793;52.238;13.438;2023-11-21T08:19:02;5.70;99.90
11474;DHT22;5793;52.238;13.438;2023-11-21T08:21:31;5.60;99.90
11474;DHT22;5793;52.238;13.438;2023-11-21T08:23:59;5.60;99.90
11474;DHT22;5793;52.238;13.438;2023-11-21T08:26:27;5.50;99.90
11474;DHT22;5793;52.238;13.438;2023-11-21T08:28:55;5.40;99.90
11474;DHT22;5793;52.238;13.438;2023-11-21T08:31:24;5.30;99.90
11474;DHT22;5793;52.238;13.438;2023-11-21T08:33:52;5.20;99.90
11474;DHT22;5793;52.238;13.438;2023-11-21T08:36:21;5.10;99.90
11474;DHT22;5793;52.238;13.438;2023-11-21T08:38:51;5.20;99.90
11474;DHT22;5793;52.238;13.438;2023-11-21T08:41:19;5.10;99.90
11474;DHT22;5793;52.238;13.438;2023-11-21T08:43:48;5.10;99.90
11474;DHT22;5793;52.238;13.438;2023-11-21T08:46:16;5.10;99.90
11474;DHT22;5793;52.238;13.438;2023-11-21T08:48:45;5.00;99.90
11474;DHT22;5793;52.238;13.438;2023-11-21T08:51:13;5.00;99.90
11474;DHT22;5793;52.238;13.438;2023-11-21T08:53:43;5.00;99.90
11474;DHT22;5793;52.238;13.438;2023-11-21T08:56:13;5.00;99.90
11474;DHT22;5793;52.238;13.438;2023-11-21T08:58:41;4.90;99.90
11474;DHT22;5793;52.238;13.438;2023-11-21T09:01:09;4.90;99.90
11474;DHT22;5793;52.238;13.438;2023-11-21T09:03:39;4.90;99.90
11474;DHT22;5793;52.238;13.438;2023-11-21T09:06:07;4.90;99.90
11474;DHT22;5793;52.238;13.438;2023-11-21T09:08:36;4.90;99.90
11474;DHT22;5793;52.238;13.438;2023-11-21T09:11:04;4.90;99.90
11474;DHT22;5793;52.238;13.438;2023-11-21T09:13:34;4.80;99.90
11474;DHT22;5793;52.238;13.438;2023-11-21T09:16:03;4.90;99.90
11474;DHT22;5793;52.238;13.438;2023-11-21T09:18:32;4.80;99.90
11474;DHT22;5793;52.238;13.438;2023-11-21T09:21:00;4.70;99.90
11474;DHT22;5793;52.238;13.438;2023-11-21T09:23:27;4.80;99.90
11474;DHT22;5793;52.238;13.438;2023-11-21T09:25:55;4.80;99.90
11474;DHT22;5793;52.238;13.438;2023-11-21T09:28:26;4.80;99.90
11474;DHT22;5793;52.238;13.438;2023-11-21T09:30:55;4.80;99.90
11474;DHT22;5793;52.238;13.438;2023-11-21T09:33:23;4.80;99.90
11474;DHT22;5793;52.238;13.438;2023-11-21T09:35:51;4.80;99.90
11474;DHT22;5793;52.238;13.438;2023-11-21T09:38:19;4.90;99.90
11474;DHT22;5793;52.238;13.438;2023-11-21T09:40:47;4.90;99.90
11474;DHT22;5793;52.238;13.438;2023-11-21T09:43:17;4.90;99.90
11474;DHT22;5793;52.238;13.438;2023-11-21T09:45:46;4.90;99.90
11474;DHT22;5793;52.238;13.438;2023-11-21T09:48:17;5.00;99.90
11474;DHT22;5793;52.238;13.438;2023-11-21T09:50:47;4.90;99.90
11474;DHT22;5793;52.238;13.438;2023-11-21T09:53:19;5.00;99.90
11474;DHT22;5793;52.238;13.438;2023-11-21T09:55:51;5.10;99.90
11474;DHT22;5793;52.238;13.438;2023-11-21T09:58:20;5.10;99.90
11474;DHT22;5793;52.238;13.438;2023-11-21T10:00:53;5.20;99.90
11474;DHT22;5793;52.238;13.438;2023-11-21T10:03:24;5.30;99.90
11474;DHT22;5793;52.238;13.438;2023-11-21T10:05:53;5.30;99.90
11474;DHT22;5793;52.238;13.438;2023-11-21T10:08:27;5.30;99.90
11474;DHT22;5793;52.238;13.438;2023-11-21T10:11:12;5.30;99.90
11474;DHT22;5793;52.238;13.438;2023-11-21T10:13:41;5.30;99.90
11474;DHT22;5793;52.238;13.438;2023-11-21T10:16:14;5.40;99.90
11474;DHT22;5793;52.238;13.438;2023-11-21T10:18:45;5.40;99.90
11474;DHT22;5793;52.238;13.438;2023-11-21T10:21:13;5.30;99.90
11474;DHT22;5793;52.238;13.438;2023-11-21T10:23:41;5.30;99.90
11474;DHT22;5793;52.238;13.438;2023-11-21T10:26:12;5.30;99.90
11474;DHT22;5793;52.238;13.438;2023-11-21T10:28:57;5.40;99.90
11474;DHT22;5793;52.238;13.438;2023-11-21T10:31:26;5.40;99.90
11474;DHT22;5793;52.238;13.438;2023-11-21T10:34:10;5.40;99.90
11474;DHT22;5793;52.238;13.438;2023-11-21T10:36:38;5.50;99.90
11474;DHT22;5793;52.238;13.438;2023-11-21T10:39:06;5.50;99.90
11474;DHT22;5793;52.238;13.438;2023-11-21T10:41:34;5.50;99.90
11474;DHT22;5793;52.238;13.438;2023-11-21T10:44:02;5.50;99.90
11474;DHT22;5793;52.238;13.438;2023-11-21T10:46:31;5.50;99.90
11474;DHT22;5793;52.238;13.438;2023-11-21T10:49:00;5.50;99.90
11474;DHT22;5793;52.238;13.438;2023-11-21T10:51:28;5.40;99.90
11474;DHT22;5793;52.238;13.438;2023-11-21T10:53:56;5.20;99.90
11474;DHT22;5793;52.238;13.438;2023-11-21T10:56:28;5.10;99.90
11474;DHT22;5793;52.238;13.438;2023-11-21T10:58:57;5.20;99.90
11474;DHT22;5793;52.238;13.438;2023-11-21T11:01:27;5.20;99.90
11474;DHT22;5793;52.238;13.438;2023-11-21T11:03:56;5.20;99.90
11474;DHT22;5793;52.238;13.438;2023-11-21T11:06:27;5.20;99.90
11474;DHT22;5793;52.238;13.438;2023-11-21T11:08:56;5.40;99.90
11474;DHT22;5793;52.238;13.438;2023-11-21T11:11:25;5.30;99.90
11474;DHT22;5793;52.238;13.438;2023-11-21T11:13:53;5.40;99.90
11474;DHT22;5793;52.238;13.438;2023-11-21T11:16:22;5.40;99.90
11474;DHT22;5793;52.238;13.438;2023-11-21T11:18:51;5.60;99.90
11474;DHT22;5793;52.238;13.438;2023-11-21T11:21:27;5.70;99.90
11474;DHT22;5793;52.238;13.438;2023-11-21T11:24:11;5.70;99.90
11474;DHT22;5793;52.238;13.438;2023-11-21T11:26:47;5.80;99.90
11474;DHT22;5793;52.238;13.438;2023-11-21T11:29:26;5.70;99.90
11474;DHT22;5793;52.238;13.438;2023-11-21T11:32:05;5.70;99.90
11474;DHT22;5793;52.238;13.438;2023-11-21T11:34:41;5.60;99.90
11474;DHT22;5793;52.238;13.438;2023-11-21T11:37:12;5.70;99.90
11474;DHT22;5793;52.238;13.438;2023-11-21T11:39:42;5.60;99.90
11474;DHT22;5793;52.238;13.438;2023-11-21T11:42:12;5.50;99.90
11474;DHT22;5793;52.238;13.438;2023-11-21T11:44:49;5.50;99.90
11474;DHT22;5793;52.238;13.438;2023-11-21T11:47:23;5.60;99.90
11474;DHT22;5793;52.238;13.438;2023-11-21T11:50:01;5.60;99.90
11474;DHT22;5793;52.238;13.438;2023-11-21T11:52:45;5.60;99.90
11474;DHT22;5793;52.238;13.438;2023-11-21T11:55:14;5.60;99.90
11474;DHT22;5793;52.238;13.438;2023-11-21T11:57:45;5.60;99.90
11474;DHT22;5793;52.238;13.438;2023-11-21T12:00:16;5.50;99.90
11474;DHT22;5793;52.238;13.438;2023-11-21T12:02:46;5.40;99.90
11474;DHT22;5793;52.238;13.438;2023-11-21T12:05:16;5.30;99.90
11474;DHT22;5793;52.238;13.438;2023-11-21T12:07:51;5.30;99.90
11474;DHT22;5793;52.238;13.438;2023-11-21T12:10:22;5.20;99.90
11474;DHT22;5793;52.238;13.438;2023-11-21T12:12:52;5.10;99.90
11474;DHT22;5793;52.238;13.438;2023-11-21T12:15:21;4.90;99.90
11474;DHT22;5793;52.238;13.438;2023-11-21T12:17:49;4.80;99.90
11474;DHT22;5793;52.238;13.438;2023-11-21T12:20:19;4.70;99.90
11474;DHT22;5793;52.238;13.438;2023-11-21T12:22:49;4.70;99.90
11474;DHT22;5793;52.238;13.438;2023-11-21T12:25:20;4.80;99.90
11474;DHT22;5793;52.238;13.438;2023-11-21T12:27:49;4.70;99.90
11474;DHT22;5793;52.238;13.438;2023-11-21T12:30:18;4.60;99.90
11474;DHT22;5793;52.238;13.438;2023-11-21T12:32:49;4.70;99.90
11474;DHT22;5793;52.238;13.438;2023-11-21T12:35:18;4.70;99.90
11474;DHT22;5793;52.238;13.438;2023-11-21T12:37:50;4.90;99.90
11474;DHT22;5793;52.238;13.438;2023-11-21T12:40:19;4.80;99.90
11474;DHT22;5793;52.238;13.438;2023-11-21T12:42:52;4.80;99.90
11474;DHT22;5793;52.238;13.438;2023-11-21T12:45:22;4.80;99.90
11474;DHT22;5793;52.238;13.438;2023-11-21T12:47:55;4.70;99.90
11474;DHT22;5793;52.238;13.438;2023-11-21T12:50:24;4.70;99.90
11474;DHT22;5793;52.238;13.438;2023-11-21T12:53:00;4.80;99.90
11474;DHT22;5793;52.238;13.438;2023-11-21T12:55:30;4.90;99.90
11474;DHT22;5793;52.238;13.438;2023-11-21T12:58:02;5.10;99.90
11474;DHT22;5793;52.238;13.438;2023-11-21T13:00:36;5.20;99.90
11474;DHT22;5793;52.238;13.438;2023-11-21T13:03:06;5.30;99.90
11474;DHT22;5793;52.238;13.438;2023-11-21T13:05:36;5.20;99.90
11474;DHT22;5793;52.238;13.438;2023-11-21T13:08:08;5.10;99.90
11474;DHT22;5793;52.238;13.438;2023-11-21T13:10:39;5.00;99.90
11474;DHT22;5793;52.238;13.438;2023-11-21T13:13:11;5.00;99.90
11474;DHT22;5793;52.238;13.438;2023-11-21T13:15:49;5.10;99.90
11474;DHT22;5793;52.238;13.438;2023-11-21T13:18:17;5.00;99.90
11474;DHT22;5793;52.238;13.438;2023-11-21T13:20:45;4.90;99.90
11474;DHT22;5793;52.238;13.438;2023-11-21T13:23:14;4.70;99.90
11474;DHT22;5793;52.238;13.438;2023-11-21T13:25:43;4.60;99.90
11474;DHT22;5793;52.238;13.438;2023-11-21T13:28:20;4.50;99.90
11474;DHT22;5793;52.238;13.438;2023-11-21T13:30:50;4.40;99.90
11474;DHT22;5793;52.238;13.438;2023-11-21T13:33:19;4.50;99.90
11474;DHT22;5793;52.238;13.438;2023-11-21T13:35:54;4.50;99.90
11474;DHT22;5793;52.238;13.438;2023-11-21T13:38:24;4.40;99.90
11474;DHT22;5793;52.238;13.438;2023-11-21T13:40:58;4.30;99.90
11474;DHT22;5793;52.238;13.438;2023-11-21T13:43:26;4.20;99.90
11474;DHT22;5793;52.238;13.438;2023-11-21T13:45:55;4.30;99.90
11474;DHT22;5793;52.238;13.438;2023-11-21T13:48:27;4.30;99.90
11474;DHT22;5793;52.238;13.438;2023-11-21T13:51:01;4.30;99.90
11474;DHT22;5793;52.238;13.438;2023-11-21T13:53:38;4.30;99.90
11474;DHT22;5793;52.238;13.438;2023-11-21T13:56:08;4.10;99.90
11474;DHT22;5793;52.238;13.438;2023-11-21T13:58:36;4.10;99.90
11474;DHT22;5793;52.238;13.438;2023-11-21T14:01:11;4.10;99.90
11474;DHT22;5793;52.238;13.438;2023-11-21T14:03:55;4.10;99.90
11474;DHT22;5793;52.238;13.438;2023-11-21T14:06:29;4.10;99.90
11474;DHT22;5793;52.238;13.438;2023-11-21T14:09:02;4.10;99.90
11474;DHT22;5793;52.238;13.438;2023-11-21T14:11:32;4.10;99.90
11474;DHT22;5793;52.238;13.438;2023-11-21T14:14:09;4.00;99.90
11474;DHT22;5793;52.238;13.438;2023-11-21T14:16:37;4.00;99.90
11474;DHT22;5793;52.238;13.438;2023-11-21T14:19:05;3.90;99.90
11474;DHT22;5793;52.238;13.438;2023-11-21T14:21:43;3.90;99.90
11474;DHT22;5793;52.238;13.438;2023-11-21T14:24:13;3.80;99.90
11474;DHT22;5793;52.238;13.438;2023-11-21T14:26:42;3.80;99.90
11474;DHT22;5793;52.238;13.438;2023-11-21T14:29:12;3.80;99.90
11474;DHT22;5793;52.238;13.438;2023-11-21T14:31:41;3.80;99.90
11474;DHT22;5793;52.238;13.438;2023-11-21T14:34:10;3.70;99.90
11474;DHT22;5793;52.238;13.438;2023-11-21T14:36:40;3.70;99.90
11474;DHT22;5793;52.238;13.438;2023-11-21T14:39:08;3.80;99.90
11474;DHT22;5793;52.238;13.438;2023-11-21T14:41:48;3.70;99.90
11474;DHT22;5793;52.238;13.438;2023-11-21T14:44:16;3.80;99.90
11474;DHT22;5793;52.238;13.438;2023-11-21T14:46:44;3.80;99.90
11474;DHT22;5793;52.238;13.438;2023-11-21T14:49:13;3.80;99.90
11474;DHT22;5793;52.238;13.438;2023-11-21T14:51:47;3.80;99.90
11474;DHT22;5793;52.238;13.438;2023-11-21T14:54:27;3.80;99.90
11474;DHT22;5793;52.238;13.438;2023-11-21T14:57:09;3.90;99.90
11474;DHT22;5793;52.238;13.438;2023-11-21T14:59:44;3.90;99.90
11474;DHT22;5793;52.238;13.438;2023-11-21T15:02:13;3.90;99.90
11474;DHT22;5793;52.238;13.438;2023-11-21T15:04:43;4.00;99.90
11474;DHT22;5793;52.238;13.438;2023-11-21T15:07:10;4.00;99.90
11474;DHT22;5793;52.238;13.438;2023-11-21T15:09:38;4.00;99.90
11474;DHT22;5793;52.238;13.438;2023-11-21T15:12:10;3.90;99.90
11474;DHT22;5793;52.238;13.438;2023-11-21T15:14:43;3.80;99.90
11474;DHT22;5793;52.238;13.438;2023-11-21T15:17:12;3.70;99.90
11474;DHT22;5793;52.238;13.438;2023-11-21T15:19:46;3.70;99.90
11474;DHT22;5793;52.238;13.438;2023-11-21T15:22:14;3.70;99.90
11474;DHT22;5793;52.238;13.438;2023-11-21T15:24:42;3.70;99.90
11474;DHT22;5793;52.238;13.438;2023-11-21T15:27:16;3.70;99.90
11474;DHT22;5793;52.238;13.438;2023-11-21T15:29:45;3.70;99.90
11474;DHT22;5793;52.238;13.438;2023-11-21T15:32:13;3.70;99.90
11474;DHT22;5793;52.238;13.438;2023-11-21T15:34:41;3.70;99.90
11474;DHT22;5793;52.238;13.438;2023-11-21T15:37:09;3.60;99.90
11474;DHT22;5793;52.238;13.438;2023-11-21T15:39:38;3.60;99.90
11474;DHT22;5793;52.238;13.438;2023-11-21T15:42:06;3.60;99.90
11474;DHT22;5793;52.238;13.438;2023-11-21T15:44:37;3.60;99.90
11474;DHT22;5793;52.238;13.438;2023-11-21T15:47:07;3.50;99.90
11474;DHT22;5793;52.238;13.438;2023-11-21T15:49:36;3.50;99.90
11474;DHT22;5793;52.238;13.438;2023-11-21T15:52:04;3.50;99.90
11474;DHT22;5793;52.238;13.438;2023-11-21T15:54:34;3.50;99.90
11474;DHT22;5793;52.238;13.438;2023-11-21T15:57:02;3.40;99.90
11474;DHT22;5793;52.238;13.438;2023-11-21T15:59:31;3.30;99.90
11474;DHT22;5793;52.238;13.438;2023-11-21T16:02:01;3.10;99.90
11474;DHT22;5793;52.238;13.438;2023-11-21T16:04:32;3.00;99.90